Wind from 180 at 5 knots gusting 12

Air temperature 26.7° C
Dewpoint 9.9° C

Last reported at 2014-Apr-24 12:45 UTC.
Time now 2014-Apr-24 13:55 UTC

Location: N 37°60' W 001°06'.
View on Google Maps.

See reports from other nearby stations

Tides Stations Pressure Air Temp Water Temp Dewpoint Dewpoint depression Visibility Wind Speed Wind Dir Waves Ship positions

  
sailing weather and tide predictions

DW6345 Murcia ES weather

date/time (UTC)wind fromknots sea level pressurealtimeterstation pressurevisibilityair tempwater tempwave heightnotes
2014-Apr-24 12:45 180 5 gusting 12 26.7
2014-Apr-24 12:35 158 5 gusting 13 26.7
2014-Apr-24 12:25 180 6 gusting 14 26.7
2014-Apr-24 12:15 148 7 gusting 17 26.7
2014-Apr-24 12:05 153 4 gusting 13 26.7
2014-Apr-24 11:55 160 7 gusting 13 26.7
2014-Apr-24 11:45 180 4 gusting 11 26.7
2014-Apr-24 11:35 323 3 gusting 10 26.1
2014-Apr-24 11:25 066 2 gusting 8 26.1
2014-Apr-24 11:15 090 4 gusting 8 26.1
2014-Apr-24 11:05 090 1 gusting 6 26.1
2014-Apr-24 10:55 063 1 gusting 6 25.6
2014-Apr-24 10:45 049 0 gusting 6 25.6
2014-Apr-24 10:35 313 4 gusting 6 26.1
2014-Apr-24 10:25 180 1 gusting 6 26.1
2014-Apr-24 10:15 090 1 gusting 5 25.0
2014-Apr-24 10:05 315 25.0
2014-Apr-24 09:55 090 2 gusting 5 25.0
2014-Apr-24 09:45 129 1 gusting 4 24.4
2014-Apr-24 09:35 135 1 gusting 4 23.3
2014-Apr-24 09:25 039 0 gusting 2 22.2
2014-Apr-24 09:15 253 21.7
2014-Apr-24 09:05 180 1 gusting 5 21.1
2014-Apr-24 08:55 158 3 gusting 6 20.6
2014-Apr-24 08:45 150 2 gusting 6 20.6
2014-Apr-24 08:35 180 2 gusting 6 20.0
2014-Apr-24 08:25 278 2 gusting 5 19.4
2014-Apr-24 08:15 270 0 gusting 2 18.9
2014-Apr-24 08:05 270 0 gusting 2 18.9
2014-Apr-24 07:55 270 0 gusting 2 18.3
2014-Apr-24 07:45 255 18.3
2014-Apr-24 07:35 297 0 gusting 2 17.8
2014-Apr-24 07:25 237 0 gusting 2 17.2
2014-Apr-24 07:15 185 0 gusting 5 16.7
2014-Apr-24 07:05 270 4 gusting 5 16.1
2014-Apr-24 06:55 246 2 gusting 5 16.1
2014-Apr-24 06:45 251 2 gusting 5 15.6
2014-Apr-24 06:35 273 1 gusting 2 15.6
2014-Apr-24 06:25 250 15.0
2014-Apr-24 06:15 270 15.0
2014-Apr-24 06:05 315 0 gusting 0 14.4
2014-Apr-24 05:55 045 14.4
2014-Apr-24 05:45 090 14.4
2014-Apr-24 05:35 135 14.4
2014-Apr-24 05:25 090 14.4
2014-Apr-24 05:15 180 14.4
2014-Apr-24 05:05 213 14.4
2014-Apr-24 04:55 143 15.0
2014-Apr-24 04:45 090 15.0
2014-Apr-24 04:35 029 0 gusting 0 15.6
2014-Apr-24 04:25 271 0 gusting 2 15.6
2014-Apr-24 04:15 270 1 gusting 2 15.6
2014-Apr-24 04:05 270 1 gusting 2 15.6
2014-Apr-24 03:55 204 1 gusting 4 15.6
2014-Apr-24 03:45 355 0 gusting 2 15.6
2014-Apr-24 03:35 225 1 gusting 2 15.0
2014-Apr-24 03:25 090 15.0
2014-Apr-24 03:15 189 0 gusting 1 15.0
2014-Apr-24 03:05 225 15.0
2014-Apr-24 02:55 225 15.0
2014-Apr-24 02:45 180 0 gusting 1 15.0
2014-Apr-24 02:35 090 15.0
2014-Apr-24 02:25 132 15.0
2014-Apr-24 02:15 135 15.6
2014-Apr-24 02:05 045 15.6
2014-Apr-24 01:55 286 0 gusting 0 15.6
2014-Apr-24 01:45 093 15.6
2014-Apr-24 01:35 225 1 gusting 2 15.6
2014-Apr-24 01:25 135 15.6
2014-Apr-24 01:15 161 0 gusting 2 15.6
2014-Apr-24 01:05 090 16.1
2014-Apr-24 00:55 090 0 gusting 1 16.1
2014-Apr-24 00:45 302 16.1
2014-Apr-24 00:35 090 16.1
2014-Apr-24 00:25 090 0 gusting 1 16.1
2014-Apr-24 00:15 090 0 gusting 2 16.7
2014-Apr-24 00:05 090 0 gusting 2 16.7
2014-Apr-23 23:55 090 0 gusting 2 16.7
2014-Apr-23 23:45 090 0 gusting 2 16.7
2014-Apr-23 23:35 127 0 gusting 2 17.2
2014-Apr-23 23:25 090 0 gusting 1 17.2
2014-Apr-23 23:15 090 17.2
2014-Apr-23 23:05 090 17.8
2014-Apr-23 22:55 271 1 gusting 2 17.8
2014-Apr-23 22:45 054 0 gusting 4 18.3
2014-Apr-23 22:35 121 0 gusting 2 18.3
2014-Apr-23 22:25 090 1 gusting 2 18.3
2014-Apr-23 22:14 090 0 gusting 2 18.9
2014-Apr-23 22:05 090 0 gusting 0 18.9
2014-Apr-23 21:55 315 19.4
2014-Apr-23 21:45 180 19.4
2014-Apr-23 21:35 090 0 gusting 1 20.0
2014-Apr-23 21:25 089 20.0
2014-Apr-23 21:15 090 0 gusting 2 20.0
2014-Apr-23 21:05 090 20.6
2014-Apr-23 20:55 098 0 gusting 2 21.1
2014-Apr-23 20:45 180 0 gusting 2 20.6
2014-Apr-23 20:35 135 0 gusting 2 21.1
2014-Apr-23 20:25 180 0 gusting 2 21.1
2014-Apr-23 20:15 165 0 gusting 2 21.7
2014-Apr-23 20:05 135 0 gusting 2 21.7
2014-Apr-23 19:55 135 0 gusting 2 22.2
2014-Apr-23 19:45 225 0 gusting 1 22.2
2014-Apr-23 19:35 112 0 gusting 2 22.8
2014-Apr-23 19:25 270 2 gusting 4 22.8
2014-Apr-23 19:15 314 1 gusting 4 23.3
2014-Apr-23 19:05 225 0 gusting 2 23.3
2014-Apr-23 18:55 270 1 gusting 4 23.3
2014-Apr-23 18:45 225 2 gusting 5 23.9
2014-Apr-23 18:35 215 2 gusting 5 23.9
2014-Apr-23 18:25 187 3 gusting 6 24.4
2014-Apr-23 18:15 180 3 gusting 7 24.4
2014-Apr-23 18:05 180 5 gusting 8 24.4
2014-Apr-23 17:55 180 6 gusting 11 24.4
2014-Apr-23 17:45 168 6 gusting 11 25.0
2014-Apr-23 17:35 176 5 gusting 11 25.0
2014-Apr-23 17:25 225 4 gusting 8 25.0
2014-Apr-23 17:15 184 6 gusting 11 25.0
2014-Apr-23 17:05 208 5 gusting 13 25.0
2014-Apr-23 16:55 168 7 gusting 14 24.4
2014-Apr-23 16:45 180 8 gusting 15 25.0
2014-Apr-23 16:35 192 7 gusting 13 25.0
2014-Apr-23 16:25 197 6 gusting 13 25.0
2014-Apr-23 16:15 192 6 gusting 13 25.0
2014-Apr-23 16:05 181 8 gusting 13 25.0
2014-Apr-23 15:55 223 10 gusting 15 25.0
2014-Apr-23 15:45 180 10 gusting 15 25.0
2014-Apr-23 15:35 044 8 gusting 18 25.0
2014-Apr-23 15:25 180 8 gusting 17 25.6
2014-Apr-23 15:15 180 10 gusting 17 25.0
2014-Apr-23 15:05 180 11 gusting 19 25.0
2014-Apr-23 14:55 217 7 gusting 17 25.6
2014-Apr-23 14:45 195 8 gusting 15 25.6
2014-Apr-23 14:35 225 8 gusting 17 25.6
2014-Apr-23 14:25 270 8 gusting 13 25.6
2014-Apr-23 14:15 225 6 gusting 17 25.6
2014-Apr-23 14:05 243 7 gusting 17 25.6
2014-Apr-23 13:55 225 11 gusting 17 25.6
2014-Apr-23 13:45 225 8 gusting 15 25.6
2014-Apr-23 13:35 077 6 gusting 12 25.6
2014-Apr-23 13:25 225 8 gusting 15 25.6
2014-Apr-23 13:15 225 10 gusting 18 25.6
2014-Apr-23 13:05 209 11 gusting 17 25.6
2014-Apr-23 12:55 225 5 gusting 14 25.6
2014-Apr-23 12:45 285 8 gusting 17 25.6
2014-Apr-23 12:35 305 4 gusting 13 26.1
2014-Apr-23 12:25 270 8 gusting 14 26.7
2014-Apr-23 12:15 150 1 gusting 5 26.7
2014-Apr-23 12:05 180 2 gusting 5 25.0
2014-Apr-23 11:55 216 1 gusting 8 25.0
2014-Apr-23 11:45 270 5 gusting 10 24.4
2014-Apr-23 11:35 281 4 gusting 8 24.4
2014-Apr-23 11:25 288 4 gusting 8 24.4
2014-Apr-23 11:15 270 4 gusting 7 24.4
2014-Apr-23 11:05 045 2 gusting 5 24.4
2014-Apr-23 10:55 270 0 gusting 7 23.9
2014-Apr-23 10:45 045 0 gusting 6 23.9
2014-Apr-23 10:35 279 0 gusting 6 23.3
2014-Apr-23 10:25 313 5 gusting 8 23.3
2014-Apr-23 10:15 278 2 gusting 6 23.3
2014-Apr-23 10:05 135 22.8
2014-Apr-23 09:55 291 5 gusting 10 22.8
2014-Apr-23 09:45 285 1 gusting 5 22.8
2014-Apr-23 09:35 325 2 gusting 6 22.2
2014-Apr-23 09:25 005 0 gusting 6 22.2
2014-Apr-23 09:15 270 3 gusting 6 21.7
2014-Apr-23 09:05 045 0 gusting 6 21.7
2014-Apr-23 08:55 271 2 gusting 6 21.1
2014-Apr-23 08:45 242 2 gusting 6 20.6
2014-Apr-23 08:35 225 3 gusting 6 20.6
2014-Apr-23 08:25 278 2 gusting 5 20.6
2014-Apr-23 08:15 270 1 gusting 6 20.0
2014-Apr-23 08:05 270 2 gusting 6 20.0
2014-Apr-23 07:55 315 2 gusting 6 19.4
2014-Apr-23 07:45 302 4 gusting 6 19.4
2014-Apr-23 07:35 295 0 gusting 4 19.4
2014-Apr-23 07:25 225 1 gusting 4 18.3
2014-Apr-23 07:15 274 1 gusting 5 18.3
2014-Apr-23 07:05 315 2 gusting 7 17.8
2014-Apr-23 06:55 315 3 gusting 6 17.8
2014-Apr-23 06:45 259 2 gusting 6 17.8
2014-Apr-23 06:35 267 3 gusting 6 17.2
2014-Apr-23 06:25 302 2 gusting 6 17.2
2014-Apr-23 06:15 270 1 gusting 6 17.2
2014-Apr-23 06:05 270 2 gusting 5 17.2
2014-Apr-23 05:55 236 2 gusting 6 16.7
2014-Apr-23 05:45 239 3 gusting 6 16.7
2014-Apr-23 05:35 270 2 gusting 6 16.7
2014-Apr-23 05:25 315 4 gusting 6 17.2
2014-Apr-23 05:15 270 2 gusting 6 17.2
2014-Apr-23 05:05 225 4 gusting 6 17.2
2014-Apr-23 04:55 270 4 gusting 6 17.2
2014-Apr-23 04:45 243 2 gusting 5 17.2
2014-Apr-23 04:35 232 2 gusting 6 17.8
2014-Apr-23 04:25 279 4 gusting 6 17.8
2014-Apr-23 04:15 293 5 gusting 8 17.8
2014-Apr-23 04:05 270 2 gusting 5 17.2
2014-Apr-23 03:55 310 2 gusting 6 17.2
2014-Apr-23 03:45 305 1 gusting 6 17.2
2014-Apr-23 03:35 270 3 gusting 6 17.2
2014-Apr-23 03:25 270 2 gusting 4 17.2
2014-Apr-23 03:15 270 1 gusting 5 17.8
2014-Apr-23 03:05 270 1 gusting 4 17.8
2014-Apr-23 02:55 238 1 gusting 5 17.8
2014-Apr-23 02:45 270 1 gusting 5 17.2
2014-Apr-23 02:35 296 0 gusting 2 17.2
2014-Apr-23 02:25 054 0 gusting 1 17.8
2014-Apr-23 02:15 090 0 gusting 4 18.3
2014-Apr-23 02:05 225 2 gusting 5 18.3
2014-Apr-23 01:55 289 1 gusting 6 18.3
2014-Apr-23 01:45 270 2 gusting 6 18.3
2014-Apr-23 01:35 270 4 gusting 6 18.3
2014-Apr-23 01:25 270 3 gusting 6 18.3
2014-Apr-23 01:15 244 3 gusting 5 18.3
2014-Apr-23 01:05 225 1 gusting 2 18.3
2014-Apr-23 00:55 180 0 gusting 5 18.9
2014-Apr-23 00:45 202 2 gusting 8 20.0
2014-Apr-23 00:35 315 4 gusting 8 20.0
2014-Apr-23 00:25 312 1 gusting 6 20.0
2014-Apr-23 00:15 225 2 gusting 10 20.0
2014-Apr-23 00:05 315 4 gusting 11 20.0
2014-Apr-22 23:55 279 3 gusting 8 20.0
2014-Apr-22 23:45 315 5 gusting 10 20.0
2014-Apr-22 23:35 297 4 gusting 11 20.6
2014-Apr-22 23:25 290 4 gusting 13 20.6
2014-Apr-22 23:15 307 3 gusting 6 20.6
2014-Apr-22 23:05 270 2 gusting 5 20.6
2014-Apr-22 22:55 270 0 gusting 5 21.1
2014-Apr-22 22:45 270 2 gusting 5 21.1
2014-Apr-22 22:35 286 1 gusting 5 21.1
2014-Apr-22 22:25 310 2 gusting 5 21.1
2014-Apr-22 22:14 270 2 gusting 5 21.1
2014-Apr-22 22:05 270 1 gusting 5 21.1
2014-Apr-22 21:55 230 2 gusting 5 21.1
2014-Apr-22 21:45 217 2 gusting 5 21.1
2014-Apr-22 21:35 225 2 gusting 4 21.1
2014-Apr-22 21:25 207 0 gusting 2 21.7
2014-Apr-22 21:15 272 0 gusting 2 21.7
2014-Apr-22 21:05 225 0 gusting 4 21.7
2014-Apr-22 20:55 225 2 gusting 5 21.7
2014-Apr-22 20:45 215 2 gusting 6 21.7
2014-Apr-22 20:35 225 2 gusting 6 22.2
2014-Apr-22 20:25 270 4 gusting 7 22.2
2014-Apr-22 20:15 258 5 gusting 8 22.2
2014-Apr-22 20:05 225 6 gusting 11 22.2
2014-Apr-22 19:55 225 6 gusting 10 22.2
2014-Apr-22 19:45 225 2 gusting 6 22.8
2014-Apr-22 19:35 261 2 gusting 7 22.8
2014-Apr-22 19:25 270 3 gusting 11 23.3
2014-Apr-22 19:15 270 5 gusting 13 23.3
2014-Apr-22 19:05 270 5 gusting 11 23.9
2014-Apr-22 18:55 271 7 gusting 13 23.9
2014-Apr-22 18:45 278 3 gusting 8 24.4
2014-Apr-22 18:35 225 4 gusting 12 24.4
2014-Apr-22 18:25 270 8 gusting 12 24.4
2014-Apr-22 18:15 296 6 gusting 14 24.4
2014-Apr-22 18:05 305 4 gusting 13 25.0
2014-Apr-22 17:55 225 5 gusting 11 25.0
2014-Apr-22 17:45 243 5 gusting 11 25.6
2014-Apr-22 17:35 270 5 gusting 11 25.6
2014-Apr-22 17:25 270 2 gusting 7 26.1
2014-Apr-22 17:15 270 5 gusting 7 26.1
2014-Apr-22 17:05 270 2 gusting 6 26.1
2014-Apr-22 16:55 270 2 gusting 8 26.1
2014-Apr-22 16:45 315 3 gusting 8 26.1
2014-Apr-22 16:35 344 4 gusting 11 26.1
2014-Apr-22 16:25 317 4 gusting 11 26.7
2014-Apr-22 16:15 270 5 gusting 13 26.7
2014-Apr-22 16:05 315 4 gusting 13 26.7
2014-Apr-22 15:55 304 6 gusting 14 26.7
2014-Apr-22 15:45 270 4 gusting 13 26.7
2014-Apr-22 15:35 270 5 gusting 10 26.7
2014-Apr-22 15:25 025 5 gusting 11 26.1
2014-Apr-22 15:15 284 4 gusting 13 26.1
2014-Apr-22 15:05 315 1 gusting 12 26.7
2014-Apr-22 14:55 270 7 gusting 14 26.7
2014-Apr-22 14:45 265 3 gusting 13 26.7
2014-Apr-22 14:35 283 4 gusting 13 26.7
2014-Apr-22 14:25 306 7 gusting 17 26.1
2014-Apr-22 14:15 297 7 gusting 13 26.1
2014-Apr-22 14:05 279 6 gusting 13 26.1
2014-Apr-22 13:55 315 4 gusting 13 26.1
2014-Apr-22 13:45 270 9 gusting 17 26.1
2014-Apr-22 13:35 315 6 gusting 15 26.1
2014-Apr-22 13:25 277 6 gusting 13 26.1
2014-Apr-22 13:15 270 8 gusting 14 26.1
2014-Apr-22 13:05 280 8 gusting 14 25.6